createdAt,value
2018-02-20T00:02:01.798Z,-1.00
2018-02-20T00:04:29.115Z,-0.90
2018-02-20T00:06:56.177Z,-0.90
2018-02-20T00:09:22.843Z,-0.90
2018-02-20T00:11:49.432Z,-0.90
2018-02-20T00:14:16.032Z,-0.90
2018-02-20T00:16:43.355Z,-1.00
2018-02-20T00:19:09.959Z,-1.00
2018-02-20T00:21:36.546Z,-1.00
2018-02-20T00:24:03.126Z,-0.90
2018-02-20T00:26:29.718Z,-1.00
2018-02-20T00:28:56.316Z,-1.00
2018-02-20T00:31:22.923Z,-1.10
2018-02-20T00:33:49.474Z,-1.10
2018-02-20T00:36:16.043Z,-1.10
2018-02-20T00:38:42.599Z,-1.10
2018-02-20T00:41:09.244Z,-1.00
2018-02-20T00:43:35.793Z,-1.10
2018-02-20T00:46:03.088Z,-1.00
2018-02-20T00:48:29.694Z,-1.00
2018-02-20T00:50:56.270Z,-1.10
2018-02-20T00:53:23.090Z,-1.10
2018-02-20T00:55:49.652Z,-1.20
2018-02-20T00:58:16.192Z,-1.20
2018-02-20T01:00:42.835Z,-1.20
2018-02-20T01:03:09.455Z,-1.20
2018-02-20T01:05:36.038Z,-1.20
2018-02-20T01:08:02.623Z,-1.10
2018-02-20T01:10:29.338Z,-1.20
2018-02-20T01:12:55.915Z,-1.10
2018-02-20T01:15:22.503Z,-1.20
2018-02-20T01:17:49.077Z,-1.20
2018-02-20T01:20:15.640Z,-1.30
2018-02-20T01:22:42.286Z,-1.20
2018-02-20T01:25:09.627Z,-1.10
2018-02-20T01:27:36.187Z,-1.10
2018-02-20T01:30:03.775Z,-1.20
2018-02-20T01:32:30.362Z,-1.20
2018-02-20T01:34:56.931Z,-1.20
2018-02-20T01:37:23.494Z,-1.20
2018-02-20T01:39:50.074Z,-1.30
2018-02-20T01:42:17.528Z,-1.40
2018-02-20T01:44:44.082Z,-1.40
2018-02-20T01:47:11.389Z,-1.50
2018-02-20T01:49:37.978Z,-1.50
2018-02-20T01:52:05.273Z,-1.60
2018-02-20T01:54:31.878Z,-1.60
2018-02-20T01:56:58.468Z,-1.50
2018-02-20T01:59:25.034Z,-1.50
2018-02-20T02:01:52.643Z,-1.50
2018-02-20T02:04:19.243Z,-1.50
2018-02-20T02:06:45.822Z,-1.50
2018-02-20T02:09:12.427Z,-1.60
2018-02-20T02:11:38.981Z,-1.60
2018-02-20T02:14:06.595Z,-1.60
2018-02-20T02:16:33.903Z,-1.60
2018-02-20T02:19:00.446Z,-1.60
2018-02-20T02:21:27.007Z,-1.60
2018-02-20T02:23:53.594Z,-1.70
2018-02-20T02:26:20.196Z,-1.60
2018-02-20T02:28:47.369Z,-1.50
2018-02-20T02:31:13.954Z,-1.50
2018-02-20T02:33:40.584Z,-1.60
2018-02-20T02:36:07.162Z,-1.50
2018-02-20T02:38:33.732Z,-1.50
2018-02-20T02:41:00.506Z,-1.50
2018-02-20T02:43:27.835Z,-1.60
2018-02-20T02:45:54.428Z,-1.60
2018-02-20T02:48:21.012Z,-1.70
2018-02-20T02:50:47.598Z,-1.80
2018-02-20T02:53:14.203Z,-1.70
2018-02-20T02:55:40.874Z,-1.80
2018-02-20T02:58:08.192Z,-1.70
2018-02-20T03:00:34.760Z,-1.70
2018-02-20T03:03:02.096Z,-1.60
2018-02-20T03:05:29.468Z,-1.60
2018-02-20T03:07:56.051Z,-1.60
2018-02-20T03:10:22.869Z,-1.60
2018-02-20T03:12:49.451Z,-1.50
2018-02-20T03:15:16.013Z,-1.50
2018-02-20T03:17:43.399Z,-1.40
2018-02-20T03:20:09.958Z,-1.40
2018-02-20T03:22:36.536Z,-1.30
2018-02-20T03:25:03.835Z,-1.40
2018-02-20T03:27:30.420Z,-1.40
2018-02-20T03:29:57.018Z,-1.40
2018-02-20T03:32:23.582Z,-1.50
2018-02-20T03:34:50.174Z,-1.50
2018-02-20T03:37:16.710Z,-1.50
2018-02-20T03:39:43.287Z,-1.40
2018-02-20T03:42:09.871Z,-1.10
2018-02-20T03:44:36.434Z,-1.40
2018-02-20T03:47:03.020Z,-1.40
2018-02-20T03:49:29.580Z,-1.50
2018-02-20T03:51:56.157Z,-1.60
2018-02-20T03:54:22.735Z,-1.80
2018-02-20T03:56:49.315Z,-1.80
2018-02-20T03:59:15.891Z,-1.80
2018-02-20T04:01:42.447Z,-1.70
2018-02-20T04:04:09.074Z,-1.60
2018-02-20T04:06:36.410Z,-1.50
2018-02-20T04:09:03.430Z,-1.50
2018-02-20T04:11:30.005Z,-1.50
2018-02-20T04:13:57.314Z,-1.70
2018-02-20T04:16:24.979Z,-1.70
2018-02-20T04:18:51.554Z,-1.80
2018-02-20T04:21:18.843Z,-1.70
2018-02-20T04:23:45.406Z,-1.70
2018-02-20T04:26:12.123Z,-1.60
2018-02-20T04:28:38.712Z,-1.70
2018-02-20T04:31:05.279Z,-1.70
2018-02-20T04:33:32.600Z,-1.80
2018-02-20T04:35:59.157Z,-1.80
2018-02-20T04:38:26.456Z,-1.50
2018-02-20T04:40:53.035Z,-1.50
2018-02-20T04:43:19.629Z,-1.50
2018-02-20T04:45:46.188Z,-1.60
2018-02-20T04:48:12.780Z,-1.70
2018-02-20T04:50:39.342Z,-1.70
2018-02-20T04:53:05.910Z,-1.80
2018-02-20T04:55:32.481Z,-1.70
2018-02-20T04:57:59.049Z,-1.50
2018-02-20T05:00:26.103Z,-1.40
2018-02-20T05:02:52.673Z,-1.50
2018-02-20T05:05:19.295Z,-1.60
2018-02-20T05:07:46.339Z,-1.60
2018-02-20T05:10:12.919Z,-1.50
2018-02-20T05:12:39.556Z,-1.50
2018-02-20T05:15:07.239Z,-1.60
2018-02-20T05:17:33.836Z,-1.70
2018-02-20T05:20:01.175Z,-1.40
2018-02-20T05:22:28.078Z,-1.50
2018-02-20T05:24:54.653Z,-1.50
2018-02-20T05:27:21.989Z,-1.80
2018-02-20T05:29:48.685Z,-1.80
2018-02-20T05:32:15.259Z,-1.70
2018-02-20T05:34:41.843Z,-1.60
2018-02-20T05:37:09.218Z,-1.50
2018-02-20T05:39:35.800Z,-1.60
2018-02-20T05:42:02.727Z,-1.70
2018-02-20T05:44:29.309Z,-1.60
2018-02-20T05:46:56.623Z,-1.80
2018-02-20T05:49:23.248Z,-1.80
2018-02-20T05:51:49.811Z,-1.80
2018-02-20T05:54:16.642Z,-1.90
2018-02-20T05:56:43.237Z,-1.90
2018-02-20T05:59:09.802Z,-1.90
2018-02-20T06:01:36.390Z,-1.90
2018-02-20T06:04:03.713Z,-1.80
2018-02-20T06:06:30.333Z,-1.80
2018-02-20T06:08:56.884Z,-1.70
2018-02-20T06:11:23.457Z,-1.70
2018-02-20T06:13:50.054Z,-1.60
2018-02-20T06:16:16.622Z,-1.40
2018-02-20T06:18:43.200Z,-1.30
2018-02-20T06:21:09.823Z,-1.60
2018-02-20T06:23:36.565Z,-1.60
2018-02-20T06:26:03.171Z,-1.80
2018-02-20T06:28:30.529Z,-1.90
2018-02-20T06:30:57.871Z,-1.90
2018-02-20T06:33:25.179Z,-1.90
2018-02-20T06:35:52.119Z,-1.90
2018-02-20T06:38:18.674Z,-1.70
2018-02-20T06:40:45.246Z,-1.70
2018-02-20T06:43:12.564Z,-2.00
2018-02-20T06:45:39.115Z,-2.00
2018-02-20T06:48:06.123Z,-2.10
2018-02-20T06:50:33.443Z,-2.00
2018-02-20T06:53:00.735Z,-2.00
2018-02-20T06:55:27.318Z,-2.00
2018-02-20T06:57:53.894Z,-1.90
2018-02-20T07:00:20.868Z,-1.80
2018-02-20T07:02:47.469Z,-1.80
2018-02-20T07:05:14.738Z,-1.80
2018-02-20T07:07:41.302Z,-1.80
2018-02-20T07:10:07.908Z,-1.90
2018-02-20T07:12:34.475Z,-1.90
2018-02-20T07:15:01.039Z,-1.80
2018-02-20T07:17:28.346Z,-1.80
2018-02-20T07:19:54.968Z,-1.80
2018-02-20T07:22:21.567Z,-1.80
2018-02-20T07:24:48.895Z,-1.60
2018-02-20T07:27:15.459Z,-1.70
2018-02-20T07:29:42.797Z,-1.60
2018-02-20T07:32:09.366Z,-1.60
2018-02-20T07:34:36.661Z,-1.70
2018-02-20T07:37:03.259Z,-1.70
2018-02-20T07:39:29.835Z,-1.70
2018-02-20T07:41:56.447Z,-1.80
2018-02-20T07:44:23.093Z,-1.90
2018-02-20T07:46:49.751Z,-1.90
2018-02-20T07:49:16.315Z,-1.90
2018-02-20T07:51:43.637Z,-1.90
2018-02-20T07:54:10.515Z,-1.90
2018-02-20T07:56:37.062Z,-1.90
2018-02-20T07:59:04.362Z,-1.80
2018-02-20T08:01:30.963Z,-1.80
2018-02-20T08:03:57.526Z,-1.80
2018-02-20T08:06:24.086Z,-1.70
2018-02-20T08:08:51.478Z,-1.80
2018-02-20T08:11:18.066Z,-1.80
2018-02-20T08:13:44.649Z,-1.80
2018-02-20T08:16:11.972Z,-1.80
2018-02-20T08:18:38.552Z,-1.80
2018-02-20T08:21:05.106Z,-1.80
2018-02-20T08:23:31.698Z,-1.90
2018-02-20T08:25:58.245Z,-2.00
2018-02-20T08:28:24.878Z,-1.90
2018-02-20T08:30:51.449Z,-1.90
2018-02-20T08:33:18.023Z,-2.00
2018-02-20T08:35:44.622Z,-1.90
2018-02-20T08:38:11.179Z,-1.80
2018-02-20T08:40:37.862Z,-1.90
2018-02-20T08:43:05.155Z,-1.80
2018-02-20T08:45:31.726Z,-1.80
2018-02-20T08:47:58.322Z,-1.70
2018-02-20T08:50:24.918Z,-1.70
2018-02-20T08:52:52.254Z,-1.70
2018-02-20T08:55:18.811Z,-1.70
2018-02-20T08:57:46.104Z,-1.90
2018-02-20T09:00:12.693Z,-1.90
2018-02-20T09:02:39.242Z,-1.90
2018-02-20T09:05:06.530Z,-2.00
2018-02-20T09:07:33.114Z,-2.00
2018-02-20T09:09:59.746Z,-2.00
2018-02-20T09:12:26.310Z,-2.00
2018-02-20T09:14:53.610Z,-2.00
2018-02-20T09:17:20.243Z,-2.00
2018-02-20T09:19:46.822Z,-1.90
2018-02-20T09:22:14.179Z,-1.80
2018-02-20T09:24:41.468Z,-1.80
2018-02-20T09:27:08.023Z,-1.80
2018-02-20T09:29:34.630Z,-1.70
2018-02-20T09:32:01.185Z,-1.80
2018-02-20T09:34:27.794Z,-1.90
2018-02-20T09:36:55.069Z,-1.80
2018-02-20T09:39:21.613Z,-1.80
2018-02-20T09:41:48.215Z,-1.80
2018-02-20T09:44:14.802Z,-1.80
2018-02-20T09:46:41.625Z,-1.80
2018-02-20T09:49:08.222Z,-1.70
2018-02-20T09:51:34.844Z,-1.70
2018-02-20T09:54:01.427Z,-1.70
2018-02-20T09:56:27.971Z,-1.70
2018-02-20T09:58:54.571Z,-1.70
2018-02-20T10:01:21.875Z,-1.70
2018-02-20T10:03:48.427Z,-1.80
2018-02-20T10:06:15.040Z,-1.80
2018-02-20T10:08:41.581Z,-1.80
2018-02-20T10:11:08.168Z,-1.70
2018-02-20T10:13:35.463Z,-1.60
2018-02-20T10:16:02.034Z,-1.70
2018-02-20T10:18:28.582Z,-1.60
2018-02-20T10:20:56.062Z,-1.60
2018-02-20T10:23:22.688Z,-1.60
2018-02-20T10:25:49.991Z,-1.50
2018-02-20T10:28:16.566Z,-1.50
2018-02-20T10:30:43.875Z,-1.30
2018-02-20T10:33:10.447Z,-1.30
2018-02-20T10:35:36.983Z,-1.20
2018-02-20T10:38:04.302Z,-1.30
2018-02-20T10:40:30.885Z,-1.30
2018-02-20T10:42:58.185Z,-1.40
2018-02-20T10:45:24.747Z,-1.40
2018-02-20T10:47:51.285Z,-1.30
2018-02-20T10:50:18.847Z,-1.30
2018-02-20T10:52:45.402Z,-1.20
2018-02-20T10:55:11.942Z,-1.20
2018-02-20T10:57:39.266Z,-1.10
2018-02-20T11:00:05.846Z,-1.10
2018-02-20T11:02:32.417Z,-1.00
2018-02-20T11:04:59.290Z,-1.00
2018-02-20T11:07:25.864Z,-1.00
2018-02-20T11:09:52.518Z,-0.90
2018-02-20T11:12:19.869Z,-1.10
2018-02-20T11:14:46.450Z,-1.10
2018-02-20T11:17:13.043Z,-1.20
2018-02-20T11:19:39.639Z,-1.30
2018-02-20T11:22:06.241Z,-1.10
2018-02-20T11:24:33.566Z,-1.00
2018-02-20T11:27:00.144Z,-1.00
2018-02-20T11:29:26.712Z,-0.80
2018-02-20T11:31:54.042Z,-1.30
2018-02-20T11:34:20.611Z,-1.30
2018-02-20T11:36:47.248Z,-1.50
2018-02-20T11:39:14.554Z,-1.40
2018-02-20T11:41:41.157Z,-1.40
2018-02-20T11:44:07.699Z,-1.40
2018-02-20T11:46:34.280Z,-1.20
2018-02-20T11:49:00.949Z,-1.10
2018-02-20T11:51:27.547Z,-1.00
2018-02-20T11:53:54.091Z,-1.00
2018-02-20T11:56:21.410Z,-0.90
2018-02-20T11:58:48.003Z,-0.90
2018-02-20T12:01:14.594Z,-0.90
2018-02-20T12:03:41.182Z,-1.00
2018-02-20T12:06:07.777Z,-0.90
2018-02-20T12:08:35.370Z,-0.80
2018-02-20T12:11:02.701Z,-0.90
2018-02-20T12:13:29.309Z,-0.90
2018-02-20T12:15:56.662Z,-0.80
2018-02-20T12:18:23.242Z,-0.80
2018-02-20T12:20:50.542Z,-0.90
2018-02-20T12:23:17.127Z,-0.90
2018-02-20T12:25:43.681Z,-0.90
2018-02-20T12:28:11.981Z,-0.80
2018-02-20T12:30:38.577Z,-0.90
2018-02-20T12:33:05.879Z,-0.70
2018-02-20T12:35:32.784Z,-0.70
2018-02-20T12:38:00.098Z,-1.00
2018-02-20T12:40:26.802Z,-1.00
2018-02-20T12:42:53.390Z,-0.90
2018-02-20T12:45:20.006Z,-0.90
2018-02-20T12:47:46.955Z,-1.00
2018-02-20T12:50:13.591Z,-0.90
2018-02-20T12:52:40.179Z,-1.00
2018-02-20T12:55:07.530Z,-0.90
2018-02-20T12:57:34.849Z,-0.60
2018-02-20T13:00:01.435Z,-0.60
2018-02-20T13:02:28.053Z,-0.70
2018-02-20T13:04:55.355Z,-0.50
2018-02-20T13:07:21.955Z,-0.70
2018-02-20T13:09:48.564Z,-0.60
2018-02-20T13:12:15.938Z,-0.50
2018-02-20T13:14:42.552Z,-0.60
2018-02-20T13:17:09.878Z,-0.50
2018-02-20T13:19:36.453Z,-0.50
2018-02-20T13:22:03.939Z,-0.50
2018-02-20T13:24:30.539Z,-0.60
2018-02-20T13:26:57.258Z,-0.60
2018-02-20T13:29:23.859Z,-0.70
2018-02-20T13:31:50.452Z,-0.60
2018-02-20T13:34:17.011Z,-0.90
2018-02-20T13:36:43.583Z,-0.60
2018-02-20T13:39:10.174Z,-0.60
2018-02-20T13:41:37.673Z,-0.60
2018-02-20T13:44:04.254Z,-0.80
2018-02-20T13:46:30.880Z,-0.90
2018-02-20T13:48:57.489Z,-0.80
2018-02-20T13:51:24.045Z,-0.10
2018-02-20T13:53:50.636Z,-0.90
2018-02-20T13:56:17.218Z,-0.70
2018-02-20T13:58:43.820Z,-0.70
2018-02-20T14:01:10.373Z,-1.00
2018-02-20T14:03:36.952Z,-0.60
2018-02-20T14:06:03.743Z,-0.70
2018-02-20T14:08:30.341Z,-0.90
2018-02-20T14:10:57.662Z,-0.80
2018-02-20T14:13:24.275Z,-0.80
2018-02-20T14:15:50.959Z,-1.00
2018-02-20T14:18:17.541Z,-0.60
2018-02-20T14:20:44.115Z,-0.50
2018-02-20T14:23:10.694Z,-0.40
2018-02-20T14:25:37.284Z,-0.60
2018-02-20T14:28:04.032Z,-0.70
2018-02-20T14:30:30.663Z,-0.60
2018-02-20T14:32:57.240Z,-0.60
2018-02-20T14:35:24.540Z,-0.50
2018-02-20T14:37:51.107Z,-0.80
2018-02-20T14:40:17.869Z,-0.50
2018-02-20T14:42:44.479Z,-0.60
2018-02-20T14:45:11.819Z,-1.00
2018-02-20T14:47:38.470Z,-1.00
2018-02-20T14:50:05.050Z,-1.10
2018-02-20T14:52:31.666Z,-1.10
2018-02-20T14:54:58.952Z,-0.90
2018-02-20T14:57:25.516Z,-1.00
2018-02-20T14:59:52.112Z,-1.30
2018-02-20T15:02:18.725Z,-1.30
2018-02-20T15:04:46.034Z,-1.30
2018-02-20T15:07:12.646Z,-1.20
2018-02-20T15:09:39.266Z,-1.20
2018-02-20T15:12:05.872Z,-1.10
2018-02-20T15:14:32.563Z,-1.20
2018-02-20T15:16:59.891Z,-1.30
2018-02-20T15:19:26.479Z,-1.10
2018-02-20T15:21:53.102Z,-1.30
2018-02-20T15:24:19.717Z,-1.30
2018-02-20T15:26:46.294Z,-1.30
2018-02-20T15:29:12.856Z,-1.00
2018-02-20T15:31:39.522Z,-1.20
2018-02-20T15:34:06.133Z,-1.30
2018-02-20T15:36:33.469Z,-1.40
2018-02-20T15:39:00.060Z,-1.40
2018-02-20T15:41:26.613Z,-1.50
2018-02-20T15:43:53.222Z,-1.20
2018-02-20T15:46:19.867Z,-1.40
2018-02-20T15:48:46.459Z,-1.10
2018-02-20T15:51:14.044Z,-1.20
2018-02-20T15:53:40.630Z,-1.00
2018-02-20T15:56:07.247Z,-1.40
2018-02-20T15:58:33.815Z,-1.30
2018-02-20T16:01:00.407Z,-1.20
2018-02-20T16:03:27.012Z,-1.40
2018-02-20T16:05:53.656Z,-1.60
2018-02-20T16:08:20.955Z,-1.40
2018-02-20T16:10:48.474Z,-1.50
2018-02-20T16:13:15.045Z,-1.60
2018-02-20T16:15:44.569Z,-1.60
2018-02-20T16:18:11.148Z,-1.20
2018-02-20T16:20:37.748Z,-1.50
2018-02-20T16:23:04.324Z,-1.40
2018-02-20T16:25:31.654Z,-1.20
2018-02-20T16:27:59.022Z,-1.20
2018-02-20T16:30:25.584Z,-1.20
2018-02-20T16:32:52.218Z,-1.30
2018-02-20T16:35:18.819Z,-1.30
2018-02-20T16:37:45.458Z,-1.30
2018-02-20T16:40:12.055Z,-1.30
2018-02-20T16:42:38.726Z,-1.30
2018-02-20T16:45:06.071Z,-1.50
2018-02-20T16:47:32.658Z,-1.60
2018-02-20T16:49:59.219Z,-1.60
2018-02-20T16:52:26.772Z,-1.60
2018-02-20T16:54:53.341Z,-1.60
2018-02-20T16:57:20.718Z,-1.50
2018-02-20T16:59:48.042Z,-1.60
2018-02-20T17:02:14.957Z,-1.70
2018-02-20T17:04:41.524Z,-1.60
2018-02-20T17:07:08.161Z,-1.60
2018-02-20T17:09:34.758Z,-1.60
2018-02-20T17:12:01.331Z,-1.70
2018-02-20T17:14:28.678Z,-1.60
2018-02-20T17:16:55.276Z,-1.60
2018-02-20T17:19:21.868Z,-1.60
2018-02-20T17:21:49.247Z,-1.50
2018-02-20T17:24:16.578Z,-1.50
2018-02-20T17:26:43.974Z,-1.60
2018-02-20T17:29:10.567Z,-1.60
2018-02-20T17:31:37.154Z,-1.70
2018-02-20T17:34:03.743Z,-1.50
2018-02-20T17:36:30.316Z,-1.60
2018-02-20T17:38:56.918Z,-1.60
2018-02-20T17:41:23.501Z,-1.60
2018-02-20T17:43:50.278Z,-1.70
2018-02-20T17:46:16.850Z,-1.70
2018-02-20T17:48:44.199Z,-1.70
2018-02-20T17:51:11.597Z,-1.70
2018-02-20T17:53:38.207Z,-1.70
2018-02-20T17:56:04.811Z,-1.70
2018-02-20T17:58:31.387Z,-1.70
2018-02-20T18:00:57.972Z,-1.70
2018-02-20T18:03:24.557Z,-1.70
2018-02-20T18:05:51.156Z,-1.80
2018-02-20T18:08:17.837Z,-1.70
2018-02-20T18:10:44.408Z,-1.70
2018-02-20T18:13:11.020Z,-1.80
2018-02-20T18:15:37.616Z,-1.70
2018-02-20T18:18:05.000Z,-1.80
2018-02-20T18:20:31.614Z,-1.80
2018-02-20T18:22:58.963Z,-1.80
2018-02-20T18:25:26.312Z,-1.80
2018-02-20T18:27:53.641Z,-1.90
2018-02-20T18:30:20.232Z,-1.90
2018-02-20T18:32:46.794Z,-2.00
2018-02-20T18:35:13.447Z,-1.90
2018-02-20T18:37:40.041Z,-1.90
2018-02-20T18:40:06.680Z,-1.90
2018-02-20T18:42:33.292Z,-2.00
2018-02-20T18:44:59.846Z,-2.00
2018-02-20T18:47:27.215Z,-1.90
2018-02-20T18:49:53.783Z,-1.90
2018-02-20T18:52:20.368Z,-1.90
2018-02-20T18:54:47.029Z,-1.90
2018-02-20T18:57:13.619Z,-2.00
2018-02-20T18:59:40.201Z,-2.00
2018-02-20T19:02:06.808Z,-2.00
2018-02-20T19:04:33.413Z,-2.10
2018-02-20T19:07:00.039Z,-2.10
2018-02-20T19:09:26.630Z,-2.10
2018-02-20T19:11:54.248Z,-1.90
2018-02-20T19:14:20.859Z,-1.90
2018-02-20T19:16:47.475Z,-1.90
2018-02-20T19:19:14.102Z,-1.90
2018-02-20T19:21:41.469Z,-1.80
2018-02-20T19:24:08.282Z,-1.90
2018-02-20T19:26:34.955Z,-1.70
2018-02-20T19:29:01.554Z,-1.80
2018-02-20T19:31:28.224Z,-1.80
2018-02-20T19:33:54.870Z,-1.80
2018-02-20T19:36:21.466Z,-1.80
2018-02-20T19:38:48.063Z,-1.70
2018-02-20T19:41:14.703Z,-1.70
2018-02-20T19:43:41.273Z,-1.70
2018-02-20T19:46:07.863Z,-1.80
2018-02-20T19:48:34.499Z,-1.70
2018-02-20T19:51:01.136Z,-1.70
2018-02-20T19:53:27.717Z,-1.70
2018-02-20T19:55:55.087Z,-1.80
2018-02-20T19:58:22.410Z,-1.90
2018-02-20T20:00:49.815Z,-2.00
2018-02-20T20:03:16.435Z,-1.90
2018-02-20T20:05:43.041Z,-2.00
2018-02-20T20:08:09.632Z,-2.10
2018-02-20T20:10:36.198Z,-2.10
2018-02-20T20:13:03.490Z,-1.80
2018-02-20T20:15:30.123Z,-1.60
2018-02-20T20:17:56.715Z,-1.60
2018-02-20T20:20:24.039Z,-1.80
2018-02-20T20:22:50.655Z,-1.80
2018-02-20T20:25:17.309Z,-1.80
2018-02-20T20:27:43.900Z,-1.80
2018-02-20T20:30:10.574Z,-1.80
2018-02-20T20:32:37.127Z,-1.80
2018-02-20T20:35:03.722Z,-1.80
2018-02-20T20:37:30.377Z,-1.90
2018-02-20T20:39:57.766Z,-1.70
2018-02-20T20:42:24.377Z,-1.80
2018-02-20T20:44:51.262Z,-1.80
2018-02-20T20:47:17.861Z,-1.70
2018-02-20T20:49:45.198Z,-1.80
2018-02-20T20:52:12.558Z,-1.90
2018-02-20T20:54:39.132Z,-2.00
2018-02-20T20:57:05.738Z,-1.90
2018-02-20T20:59:33.051Z,-2.00
2018-02-20T21:01:59.614Z,-2.00
2018-02-20T21:04:26.208Z,-2.00
2018-02-20T21:06:52.935Z,-2.10
2018-02-20T21:09:19.503Z,-2.00
2018-02-20T21:11:46.074Z,-2.00
2018-02-20T21:14:13.446Z,-2.00
2018-02-20T21:16:40.008Z,-1.90
2018-02-20T21:19:06.581Z,-2.10
2018-02-20T21:21:33.175Z,-2.00
2018-02-20T21:23:59.866Z,-2.10
2018-02-20T21:26:26.530Z,-2.00
2018-02-20T21:28:53.120Z,-2.00
2018-02-20T21:31:19.899Z,-1.90
2018-02-20T21:33:47.229Z,-1.90
2018-02-20T21:36:13.810Z,-2.00
2018-02-20T21:38:40.406Z,-2.00
2018-02-20T21:41:07.154Z,-2.10
2018-02-20T21:43:34.490Z,-1.80
2018-02-20T21:46:01.096Z,-1.90
2018-02-20T21:48:27.671Z,-1.90
2018-02-20T21:50:54.282Z,-2.00
2018-02-20T21:53:20.950Z,-2.10
2018-02-20T21:55:48.254Z,-2.20
2018-02-20T21:58:14.830Z,-2.20
2018-02-20T22:00:41.478Z,-2.10
2018-02-20T22:03:08.044Z,-2.40
2018-02-20T22:05:34.730Z,-2.30
2018-02-20T22:08:01.319Z,-2.10
2018-02-20T22:10:27.915Z,-2.30
2018-02-20T22:12:55.286Z,-2.40
2018-02-20T22:15:22.598Z,-2.40
2018-02-20T22:17:49.169Z,-2.30
2018-02-20T22:20:15.756Z,-2.40
2018-02-20T22:22:42.342Z,-2.50
2018-02-20T22:25:08.915Z,-2.50
2018-02-20T22:27:35.529Z,-2.50
2018-02-20T22:30:02.956Z,-2.60
2018-02-20T22:32:29.527Z,-2.60
2018-02-20T22:34:56.845Z,-2.60
2018-02-20T22:37:23.395Z,-2.60
2018-02-20T22:39:49.980Z,-2.60
2018-02-20T22:42:16.586Z,-2.70
2018-02-20T22:44:43.283Z,-2.80
2018-02-20T22:47:09.866Z,-2.80
2018-02-20T22:49:37.166Z,-2.70
2018-02-20T22:52:03.763Z,-2.80
2018-02-20T22:54:30.336Z,-2.90
2018-02-20T22:56:56.915Z,-2.90
2018-02-20T22:59:24.230Z,-2.90
2018-02-20T23:01:51.164Z,-2.90
2018-02-20T23:04:17.719Z,-2.80
2018-02-20T23:06:45.219Z,-2.90
2018-02-20T23:09:11.802Z,-2.90
2018-02-20T23:11:46.194Z,-2.80
2018-02-20T23:14:12.816Z,-2.80
2018-02-20T23:16:39.374Z,-2.80
2018-02-20T23:19:05.962Z,-2.90
2018-02-20T23:21:32.603Z,-2.90
2018-02-20T23:23:59.174Z,-2.80
2018-02-20T23:26:25.732Z,-2.90
2018-02-20T23:28:52.447Z,-2.90
2018-02-20T23:31:18.994Z,-2.90
2018-02-20T23:33:45.561Z,-2.90
2018-02-20T23:36:12.934Z,-2.80
2018-02-20T23:38:39.506Z,-2.90
2018-02-20T23:41:06.199Z,-2.80
2018-02-20T23:43:32.792Z,-2.80
2018-02-20T23:46:00.102Z,-2.70
2018-02-20T23:48:26.677Z,-2.70
